sensor_id;sensor_type;location;lat;lon;timestamp;pressure;altitude;pressure_sealevel;temperature;humidity
55079;BME280;55187;49.496;6.010;2022-07-10T00:00:44;98377.00;;;10.53;96.94
55079;BME280;55187;49.496;6.010;2022-07-10T00:03:10;98375.19;;;10.62;96.79
55079;BME280;55187;49.496;6.010;2022-07-10T00:05:37;98365.13;;;10.49;97.37
55079;BME280;55187;49.496;6.010;2022-07-10T00:08:03;98375.88;;;10.47;97.44
55079;BME280;55187;49.496;6.010;2022-07-10T00:10:29;98370.25;;;10.42;97.25
55079;BME280;55187;49.496;6.010;2022-07-10T00:12:59;98369.41;;;10.34;97.37
55079;BME280;55187;49.496;6.010;2022-07-10T00:15:26;98368.75;;;10.32;98.20
55079;BME280;55187;49.496;6.010;2022-07-10T00:17:52;98362.66;;;10.31;98.11
55079;BME280;55187;49.496;6.010;2022-07-10T00:20:18;98363.47;;;10.32;98.47
55079;BME280;55187;49.496;6.010;2022-07-10T00:22:44;98363.44;;;10.23;99.13
55079;BME280;55187;49.496;6.010;2022-07-10T00:25:12;98368.38;;;10.18;98.92
55079;BME280;55187;49.496;6.010;2022-07-10T00:27:39;98373.06;;;10.41;98.49
55079;BME280;55187;49.496;6.010;2022-07-10T00:30:08;98367.41;;;10.68;98.20
55079;BME280;55187;49.496;6.010;2022-07-10T00:32:35;98361.09;;;10.69;96.58
55079;BME280;55187;49.496;6.010;2022-07-10T00:35:02;98368.88;;;10.71;96.75
55079;BME280;55187;49.496;6.010;2022-07-10T00:37:29;98370.69;;;11.26;93.14
55079;BME280;55187;49.496;6.010;2022-07-10T00:39:55;98368.13;;;11.49;91.57
55079;BME280;55187;49.496;6.010;2022-07-10T00:42:22;98358.31;;;11.50;90.93
55079;BME280;55187;49.496;6.010;2022-07-10T00:44:48;98360.72;;;11.68;89.19
55079;BME280;55187;49.496;6.010;2022-07-10T00:47:14;98355.91;;;11.71;88.92
55079;BME280;55187;49.496;6.010;2022-07-10T00:49:44;98363.63;;;11.81;88.40
55079;BME280;55187;49.496;6.010;2022-07-10T00:52:12;98364.38;;;11.67;89.20
55079;BME280;55187;49.496;6.010;2022-07-10T00:54:42;98365.44;;;11.58;89.25
55079;BME280;55187;49.496;6.010;2022-07-10T00:57:09;98352.13;;;11.66;88.41
55079;BME280;55187;49.496;6.010;2022-07-10T00:59:36;98357.28;;;11.59;88.77
55079;BME280;55187;49.496;6.010;2022-07-10T01:02:03;98356.09;;;11.62;88.22
55079;BME280;55187;49.496;6.010;2022-07-10T01:04:31;98355.41;;;11.68;87.22
55079;BME280;55187;49.496;6.010;2022-07-10T01:06:57;98344.34;;;11.64;87.02
55079;BME280;55187;49.496;6.010;2022-07-10T01:09:25;98351.97;;;11.59;87.03
55079;BME280;55187;49.496;6.010;2022-07-10T01:11:52;98355.59;;;11.66;86.95
55079;BME280;55187;49.496;6.010;2022-07-10T01:14:19;98357.13;;;11.61;87.06
55079;BME280;55187;49.496;6.010;2022-07-10T01:16:45;98354.50;;;11.52;88.35
55079;BME280;55187;49.496;6.010;2022-07-10T01:19:12;98353.59;;;11.37;89.89
55079;BME280;55187;49.496;6.010;2022-07-10T01:21:38;98350.69;;;11.24;89.39
55079;BME280;55187;49.496;6.010;2022-07-10T01:24:06;98352.44;;;10.92;91.56
55079;BME280;55187;49.496;6.010;2022-07-10T01:26:34;98351.47;;;10.93;91.24
55079;BME280;55187;49.496;6.010;2022-07-10T01:29:03;98352.13;;;10.87;91.61
55079;BME280;55187;49.496;6.010;2022-07-10T01:31:31;98354.00;;;10.70;92.72
55079;BME280;55187;49.496;6.010;2022-07-10T01:33:59;98362.88;;;10.85;91.55
55079;BME280;55187;49.496;6.010;2022-07-10T01:36:28;98362.88;;;10.85;91.57
55079;BME280;55187;49.496;6.010;2022-07-10T01:38:58;98362.59;;;10.72;92.63
55079;BME280;55187;49.496;6.010;2022-07-10T01:41:27;98361.28;;;10.60;93.14
55079;BME280;55187;49.496;6.010;2022-07-10T01:43:56;98358.16;;;10.48;93.67
55079;BME280;55187;49.496;6.010;2022-07-10T01:46:22;98352.38;;;10.44;94.24
55079;BME280;55187;49.496;6.010;2022-07-10T01:48:50;98351.03;;;10.48;93.57
55079;BME280;55187;49.496;6.010;2022-07-10T01:51:16;98349.91;;;10.35;94.41
55079;BME280;55187;49.496;6.010;2022-07-10T01:53:43;98358.47;;;10.20;95.10
55079;BME280;55187;49.496;6.010;2022-07-10T01:56:11;98355.00;;;10.12;95.90
55079;BME280;55187;49.496;6.010;2022-07-10T01:58:39;98353.50;;;10.09;96.02
55079;BME280;55187;49.496;6.010;2022-07-10T02:01:06;98368.41;;;10.10;96.58
55079;BME280;55187;49.496;6.010;2022-07-10T02:03:33;98375.31;;;10.03;96.26
55079;BME280;55187;49.496;6.010;2022-07-10T02:06:11;98373.00;;;9.92;96.61
55079;BME280;55187;49.496;6.010;2022-07-10T02:08:37;98365.59;;;10.20;95.30
55079;BME280;55187;49.496;6.010;2022-07-10T02:11:04;98370.19;;;10.26;95.17
55079;BME280;55187;49.496;6.010;2022-07-10T02:13:30;98381.13;;;10.23;94.82
55079;BME280;55187;49.496;6.010;2022-07-10T02:15:58;98373.69;;;10.10;95.90
55079;BME280;55187;49.496;6.010;2022-07-10T02:18:25;98379.94;;;9.93;96.53
55079;BME280;55187;49.496;6.010;2022-07-10T02:20:52;98378.75;;;9.79;97.87
55079;BME280;55187;49.496;6.010;2022-07-10T02:23:18;98376.28;;;9.85;98.20
55079;BME280;55187;49.496;6.010;2022-07-10T02:25:48;98377.28;;;9.76;97.68
55079;BME280;55187;49.496;6.010;2022-07-10T02:28:14;98371.00;;;9.94;96.85
55079;BME280;55187;49.496;6.010;2022-07-10T02:30:41;98365.59;;;10.20;93.54
55079;BME280;55187;49.496;6.010;2022-07-10T02:33:08;98368.41;;;10.35;92.56
55079;BME280;55187;49.496;6.010;2022-07-10T02:35:34;98360.63;;;10.41;91.89
55079;BME280;55187;49.496;6.010;2022-07-10T02:38:00;98354.69;;;10.47;91.02
55079;BME280;55187;49.496;6.010;2022-07-10T02:40:27;98356.19;;;10.58;90.17
55079;BME280;55187;49.496;6.010;2022-07-10T02:42:53;98356.34;;;10.48;90.68
55079;BME280;55187;49.496;6.010;2022-07-10T02:45:19;98353.38;;;10.35;90.75
55079;BME280;55187;49.496;6.010;2022-07-10T02:47:45;98360.16;;;10.29;92.17
55079;BME280;55187;49.496;6.010;2022-07-10T02:50:12;98352.53;;;10.18;91.75
55079;BME280;55187;49.496;6.010;2022-07-10T02:52:38;98346.25;;;10.19;92.46
55079;BME280;55187;49.496;6.010;2022-07-10T02:55:05;98359.63;;;10.18;92.57
55079;BME280;55187;49.496;6.010;2022-07-10T02:57:31;98351.53;;;10.11;91.54
55079;BME280;55187;49.496;6.010;2022-07-10T02:59:58;98357.00;;;10.34;91.27
55079;BME280;55187;49.496;6.010;2022-07-10T03:02:24;98357.34;;;10.31;90.91
55079;BME280;55187;49.496;6.010;2022-07-10T03:04:50;98352.19;;;10.21;90.61
55079;BME280;55187;49.496;6.010;2022-07-10T03:07:16;98348.25;;;10.34;90.50
55079;BME280;55187;49.496;6.010;2022-07-10T03:09:43;98343.94;;;10.08;90.79
55079;BME280;55187;49.496;6.010;2022-07-10T03:12:09;98348.38;;;9.99;91.87
55079;BME280;55187;49.496;6.010;2022-07-10T03:14:35;98365.22;;;9.98;92.05
55079;BME280;55187;49.496;6.010;2022-07-10T03:17:02;98363.75;;;9.87;92.51
55079;BME280;55187;49.496;6.010;2022-07-10T03:19:28;98361.41;;;9.76;93.12
55079;BME280;55187;49.496;6.010;2022-07-10T03:21:55;98357.59;;;9.62;94.48
55079;BME280;55187;49.496;6.010;2022-07-10T03:24:24;98361.28;;;9.27;95.68
55079;BME280;55187;49.496;6.010;2022-07-10T03:26:51;98354.13;;;9.19;95.86
55079;BME280;55187;49.496;6.010;2022-07-10T03:29:17;98354.28;;;9.10;97.26
55079;BME280;55187;49.496;6.010;2022-07-10T03:31:43;98359.13;;;8.88;98.16
55079;BME280;55187;49.496;6.010;2022-07-10T03:34:10;98364.56;;;8.87;98.82
55079;BME280;55187;49.496;6.010;2022-07-10T03:36:36;98357.91;;;8.74;99.14
55079;BME280;55187;49.496;6.010;2022-07-10T03:39:02;98354.41;;;8.74;99.53
55079;BME280;55187;49.496;6.010;2022-07-10T03:41:29;98351.63;;;8.49;100.00
55079;BME280;55187;49.496;6.010;2022-07-10T03:43:55;98353.59;;;8.47;100.00
55079;BME280;55187;49.496;6.010;2022-07-10T03:46:21;98354.28;;;8.31;100.00
55079;BME280;55187;49.496;6.010;2022-07-10T03:48:48;98358.94;;;8.37;100.00
55079;BME280;55187;49.496;6.010;2022-07-10T03:51:14;98363.53;;;8.35;100.00
55079;BME280;55187;49.496;6.010;2022-07-10T03:53:40;98360.91;;;8.35;100.00
55079;BME280;55187;49.496;6.010;2022-07-10T03:56:07;98365.66;;;8.32;100.00
55079;BME280;55187;49.496;6.010;2022-07-10T03:58:33;98358.19;;;8.27;100.00
55079;BME280;55187;49.496;6.010;2022-07-10T04:00:59;98365.28;;;8.27;100.00
55079;BME280;55187;49.496;6.010;2022-07-10T04:03:26;98362.19;;;8.31;100.00
55079;BME280;55187;49.496;6.010;2022-07-10T04:05:52;98366.19;;;8.35;100.00
55079;BME280;55187;49.496;6.010;2022-07-10T04:08:18;98366.22;;;8.61;100.00
55079;BME280;55187;49.496;6.010;2022-07-10T04:10:44;98363.56;;;8.61;100.00
55079;BME280;55187;49.496;6.010;2022-07-10T04:13:11;98366.94;;;8.46;100.00
55079;BME280;55187;49.496;6.010;2022-07-10T04:15:37;98367.50;;;8.57;100.00
55079;BME280;55187;49.496;6.010;2022-07-10T04:18:03;98368.47;;;8.82;100.00
55079;BME280;55187;49.496;6.010;2022-07-10T04:20:30;98364.09;;;8.65;100.00
55079;BME280;55187;49.496;6.010;2022-07-10T04:22:56;98360.53;;;8.74;100.00
55079;BME280;55187;49.496;6.010;2022-07-10T04:25:22;98365.69;;;8.58;100.00
55079;BME280;55187;49.496;6.010;2022-07-10T04:27:49;98368.91;;;8.70;100.00
55079;BME280;55187;49.496;6.010;2022-07-10T04:30:15;98372.63;;;8.59;100.00
55079;BME280;55187;49.496;6.010;2022-07-10T04:32:41;98382.28;;;8.76;100.00
55079;BME280;55187;49.496;6.010;2022-07-10T04:35:08;98376.38;;;8.74;100.00
55079;BME280;55187;49.496;6.010;2022-07-10T04:37:34;98372.72;;;8.75;100.00
55079;BME280;55187;49.496;6.010;2022-07-10T04:40:01;98378.34;;;8.72;100.00
55079;BME280;55187;49.496;6.010;2022-07-10T04:42:27;98371.84;;;8.93;100.00
55079;BME280;55187;49.496;6.010;2022-07-10T04:44:56;98367.91;;;8.97;99.46
55079;BME280;55187;49.496;6.010;2022-07-10T04:47:23;98369.38;;;8.91;99.59
55079;BME280;55187;49.496;6.010;2022-07-10T04:49:49;98380.38;;;8.87;99.63
55079;BME280;55187;49.496;6.010;2022-07-10T04:52:15;98386.16;;;8.90;99.96
55079;BME280;55187;49.496;6.010;2022-07-10T04:54:42;98397.59;;;8.99;99.58
55079;BME280;55187;49.496;6.010;2022-07-10T04:57:11;98390.63;;;8.90;100.00
55079;BME280;55187;49.496;6.010;2022-07-10T04:59:37;98390.41;;;8.83;100.00
55079;BME280;55187;49.496;6.010;2022-07-10T05:02:04;98391.75;;;8.79;100.00
55079;BME280;55187;49.496;6.010;2022-07-10T05:04:30;98395.69;;;8.83;100.00
55079;BME280;55187;49.496;6.010;2022-07-10T05:06:57;98397.03;;;8.87;100.00
55079;BME280;55187;49.496;6.010;2022-07-10T05:09:25;98396.09;;;8.88;100.00
55079;BME280;55187;49.496;6.010;2022-07-10T05:11:51;98394.66;;;8.76;100.00
55079;BME280;55187;49.496;6.010;2022-07-10T05:14:18;98399.34;;;8.82;100.00
55079;BME280;55187;49.496;6.010;2022-07-10T05:16:44;98388.88;;;8.98;100.00
55079;BME280;55187;49.496;6.010;2022-07-10T05:19:10;98393.47;;;8.96;100.00
55079;BME280;55187;49.496;6.010;2022-07-10T05:21:36;98402.53;;;8.94;100.00
55079;BME280;55187;49.496;6.010;2022-07-10T05:24:03;98409.72;;;9.10;100.00
55079;BME280;55187;49.496;6.010;2022-07-10T05:26:29;98409.31;;;9.31;99.86
55079;BME280;55187;49.496;6.010;2022-07-10T05:28:55;98404.84;;;9.74;96.56
55079;BME280;55187;49.496;6.010;2022-07-10T05:31:22;98403.88;;;9.83;94.05
55079;BME280;55187;49.496;6.010;2022-07-10T05:33:48;98397.22;;;9.71;94.57
55079;BME280;55187;49.496;6.010;2022-07-10T05:36:14;98402.69;;;9.77;96.08
55079;BME280;55187;49.496;6.010;2022-07-10T05:38:41;98393.63;;;9.72;94.63
55079;BME280;55187;49.496;6.010;2022-07-10T05:41:07;98398.97;;;9.96;92.74
55079;BME280;55187;49.496;6.010;2022-07-10T05:43:33;98398.78;;;9.98;92.17
55079;BME280;55187;49.496;6.010;2022-07-10T05:46:00;98394.00;;;10.09;93.31
55079;BME280;55187;49.496;6.010;2022-07-10T05:48:26;98398.81;;;10.06;94.02
55079;BME280;55187;49.496;6.010;2022-07-10T05:50:52;98398.97;;;10.13;93.83
55079;BME280;55187;49.496;6.010;2022-07-10T05:53:19;98413.34;;;10.02;93.73
55079;BME280;55187;49.496;6.010;2022-07-10T05:55:48;98402.44;;;10.21;92.03
55079;BME280;55187;49.496;6.010;2022-07-10T05:58:15;98396.19;;;10.39;90.49
55079;BME280;55187;49.496;6.010;2022-07-10T06:00:42;98393.91;;;12.94;80.00
55079;BME280;55187;49.496;6.010;2022-07-10T06:03:10;98402.56;;;14.35;73.65
55079;BME280;55187;49.496;6.010;2022-07-10T06:05:37;98408.63;;;16.51;67.67
55079;BME280;55187;49.496;6.010;2022-07-10T06:08:03;98405.69;;;18.29;62.16
55079;BME280;55187;49.496;6.010;2022-07-10T06:10:30;98408.97;;;18.56;61.25
55079;BME280;55187;49.496;6.010;2022-07-10T06:12:56;98400.22;;;20.64;54.08
55079;BME280;55187;49.496;6.010;2022-07-10T06:15:25;98406.34;;;19.62;53.25
55079;BME280;55187;49.496;6.010;2022-07-10T06:17:52;98407.44;;;21.57;50.09
55079;BME280;55187;49.496;6.010;2022-07-10T06:20:19;98406.34;;;19.80;51.20
55079;BME280;55187;49.496;6.010;2022-07-10T06:22:45;98413.09;;;21.09;49.63
55079;BME280;55187;49.496;6.010;2022-07-10T06:25:11;98408.25;;;22.56;47.23
55079;BME280;55187;49.496;6.010;2022-07-10T06:27:38;98412.19;;;22.99;45.79
55079;BME280;55187;49.496;6.010;2022-07-10T06:30:04;98408.16;;;22.51;45.34
55079;BME280;55187;49.496;6.010;2022-07-10T06:32:31;98411.09;;;22.83;44.34
55079;BME280;55187;49.496;6.010;2022-07-10T06:34:58;98406.56;;;24.05;43.61
55079;BME280;55187;49.496;6.010;2022-07-10T06:37:25;98407.13;;;21.54;45.33
55079;BME280;55187;49.496;6.010;2022-07-10T06:39:52;98405.44;;;21.76;46.40
55079;BME280;55187;49.496;6.010;2022-07-10T06:42:18;98403.81;;;23.56;44.02
55079;BME280;55187;49.496;6.010;2022-07-10T06:44:48;98421.16;;;22.54;43.22
55079;BME280;55187;49.496;6.010;2022-07-10T06:47:17;98413.81;;;21.40;44.91
55079;BME280;55187;49.496;6.010;2022-07-10T06:49:56;98411.31;;;20.67;46.75
55079;BME280;55187;49.496;6.010;2022-07-10T06:52:23;98424.78;;;20.91;47.65
55079;BME280;55187;49.496;6.010;2022-07-10T06:54:50;98420.72;;;21.35;46.71
55079;BME280;55187;49.496;6.010;2022-07-10T06:57:17;98419.16;;;21.63;43.83
55079;BME280;55187;49.496;6.010;2022-07-10T06:59:45;98412.75;;;20.93;45.74
55079;BME280;55187;49.496;6.010;2022-07-10T07:02:12;98409.00;;;21.30;44.99
55079;BME280;55187;49.496;6.010;2022-07-10T07:04:39;98415.34;;;21.24;45.95
55079;BME280;55187;49.496;6.010;2022-07-10T07:07:05;98414.19;;;20.96;45.56
55079;BME280;55187;49.496;6.010;2022-07-10T07:09:32;98413.09;;;21.32;44.84
55079;BME280;55187;49.496;6.010;2022-07-10T07:11:58;98410.75;;;22.17;43.60
55079;BME280;55187;49.496;6.010;2022-07-10T07:14:25;98413.97;;;19.83;47.19
55079;BME280;55187;49.496;6.010;2022-07-10T07:16:51;98416.50;;;21.51;44.53
55079;BME280;55187;49.496;6.010;2022-07-10T07:19:25;98413.56;;;21.93;43.12
55079;BME280;55187;49.496;6.010;2022-07-10T07:21:58;98422.44;;;22.34;43.45
55079;BME280;55187;49.496;6.010;2022-07-10T07:24:38;98427.22;;;21.75;44.19
55079;BME280;55187;49.496;6.010;2022-07-10T07:27:04;98422.00;;;21.56;44.21
55079;BME280;55187;49.496;6.010;2022-07-10T07:29:33;98426.59;;;21.44;45.28
55079;BME280;55187;49.496;6.010;2022-07-10T07:32:00;98426.16;;;18.49;50.81
55079;BME280;55187;49.496;6.010;2022-07-10T07:34:26;98431.56;;;18.42;51.24
55079;BME280;55187;49.496;6.010;2022-07-10T07:36:52;98426.31;;;18.85;49.99
55079;BME280;55187;49.496;6.010;2022-07-10T07:39:18;98417.63;;;19.70;47.57
55079;BME280;55187;49.496;6.010;2022-07-10T07:41:46;98435.88;;;22.46;44.57
55079;BME280;55187;49.496;6.010;2022-07-10T07:44:13;98429.44;;;18.82;48.75
55079;BME280;55187;49.496;6.010;2022-07-10T07:46:44;98428.78;;;20.35;47.21
55079;BME280;55187;49.496;6.010;2022-07-10T07:49:10;98423.28;;;20.83;46.44
55079;BME280;55187;49.496;6.010;2022-07-10T07:51:36;98419.88;;;20.88;46.10
55079;BME280;55187;49.496;6.010;2022-07-10T07:54:03;98428.59;;;20.18;47.44
55079;BME280;55187;49.496;6.010;2022-07-10T07:56:29;98422.59;;;18.30;51.07
55079;BME280;55187;49.496;6.010;2022-07-10T07:58:55;98428.59;;;17.02;54.65
55079;BME280;55187;49.496;6.010;2022-07-10T08:01:22;98420.75;;;16.67;56.19
55079;BME280;55187;49.496;6.010;2022-07-10T08:03:48;98421.78;;;17.77;53.13
55079;BME280;55187;49.496;6.010;2022-07-10T08:06:15;98415.97;;;19.88;48.46
55079;BME280;55187;49.496;6.010;2022-07-10T08:08:41;98430.91;;;18.78;49.86
55079;BME280;55187;49.496;6.010;2022-07-10T08:11:07;98431.84;;;19.89;48.28
55079;BME280;55187;49.496;6.010;2022-07-10T08:13:34;98424.78;;;19.58;47.83
55079;BME280;55187;49.496;6.010;2022-07-10T08:16:01;98414.72;;;20.74;46.83
55079;BME280;55187;49.496;6.010;2022-07-10T08:18:27;98430.00;;;21.80;44.36
55079;BME280;55187;49.496;6.010;2022-07-10T08:20:53;98420.13;;;21.33;45.45
55079;BME280;55187;49.496;6.010;2022-07-10T08:23:20;98420.66;;;22.40;43.50
55079;BME280;55187;49.496;6.010;2022-07-10T08:25:46;98423.00;;;21.79;44.24
55079;BME280;55187;49.496;6.010;2022-07-10T08:28:13;98417.78;;;22.63;42.70
55079;BME280;55187;49.496;6.010;2022-07-10T08:30:39;98417.13;;;23.85;40.58
55079;BME280;55187;49.496;6.010;2022-07-10T08:33:05;98413.66;;;24.39;39.67
55079;BME280;55187;49.496;6.010;2022-07-10T08:35:32;98419.41;;;23.32;42.03
55079;BME280;55187;49.496;6.010;2022-07-10T08:37:58;98410.78;;;22.96;41.94
55079;BME280;55187;49.496;6.010;2022-07-10T08:40:25;98405.63;;;23.73;40.75
55079;BME280;55187;49.496;6.010;2022-07-10T08:42:51;98405.47;;;22.51;42.32
55079;BME280;55187;49.496;6.010;2022-07-10T08:45:17;98405.69;;;23.78;40.11
55079;BME280;55187;49.496;6.010;2022-07-10T08:47:44;98406.06;;;24.68;38.19
55079;BME280;55187;49.496;6.010;2022-07-10T08:50:23;98402.44;;;22.64;41.41
55079;BME280;55187;49.496;6.010;2022-07-10T08:53:09;98400.81;;;25.26;37.97
55079;BME280;55187;49.496;6.010;2022-07-10T08:55:36;98398.94;;;21.89;43.15
55079;BME280;55187;49.496;6.010;2022-07-10T08:58:03;98396.84;;;23.82;39.63
55079;BME280;55187;49.496;6.010;2022-07-10T09:00:33;98400.97;;;23.90;39.15
55079;BME280;55187;49.496;6.010;2022-07-10T09:03:00;98394.00;;;23.94;39.91
55079;BME280;55187;49.496;6.010;2022-07-10T09:05:26;98385.63;;;23.52;40.22
55079;BME280;55187;49.496;6.010;2022-07-10T09:07:54;98393.59;;;24.07;40.34
55079;BME280;55187;49.496;6.010;2022-07-10T09:10:25;98394.72;;;24.39;39.33
55079;BME280;55187;49.496;6.010;2022-07-10T09:12:54;98388.09;;;24.52;39.44
55079;BME280;55187;49.496;6.010;2022-07-10T09:15:22;98383.88;;;25.03;38.75
55079;BME280;55187;49.496;6.010;2022-07-10T09:17:54;98379.97;;;24.24;39.25
55079;BME280;55187;49.496;6.010;2022-07-10T09:20:33;98380.06;;;24.07;39.57
55079;BME280;55187;49.496;6.010;2022-07-10T09:23:16;98383.13;;;25.13;38.35
55079;BME280;55187;49.496;6.010;2022-07-10T09:25:47;98374.56;;;24.89;39.00
55079;BME280;55187;49.496;6.010;2022-07-10T09:28:17;98372.53;;;25.64;38.50
55079;BME280;55187;49.496;6.010;2022-07-10T09:30:44;98378.31;;;24.83;41.88
55079;BME280;55187;49.496;6.010;2022-07-10T09:33:26;98388.00;;;21.55;43.90
55079;BME280;55187;49.496;6.010;2022-07-10T09:36:05;98381.19;;;22.34;44.23
55079;BME280;55187;49.496;6.010;2022-07-10T09:38:55;98375.13;;;22.94;43.10
55079;BME280;55187;49.496;6.010;2022-07-10T09:41:25;98367.34;;;22.47;44.23
55079;BME280;55187;49.496;6.010;2022-07-10T09:43:55;98370.66;;;23.44;41.60
55079;BME280;55187;49.496;6.010;2022-07-10T09:46:33;98364.06;;;21.71;45.38
55079;BME280;55187;49.496;6.010;2022-07-10T09:49:11;98374.22;;;22.72;42.87
55079;BME280;55187;49.496;6.010;2022-07-10T09:51:39;98366.63;;;21.77;44.92
55079;BME280;55187;49.496;6.010;2022-07-10T09:54:07;98362.91;;;24.24;40.85
55079;BME280;55187;49.496;6.010;2022-07-10T09:56:43;98373.94;;;23.90;39.88
55079;BME280;55187;49.496;6.010;2022-07-10T09:59:13;98364.97;;;23.01;42.11
55079;BME280;55187;49.496;6.010;2022-07-10T10:01:47;98378.53;;;23.67;41.00
55079;BME280;55187;49.496;6.010;2022-07-10T10:04:15;98375.78;;;22.51;43.61
55079;BME280;55187;49.496;6.010;2022-07-10T10:06:42;98378.41;;;20.53;47.23
55079;BME280;55187;49.496;6.010;2022-07-10T10:09:18;98367.00;;;20.82;47.20
55079;BME280;55187;49.496;6.010;2022-07-10T10:11:47;98371.38;;;22.78;44.18
55079;BME280;55187;49.496;6.010;2022-07-10T10:14:18;98365.38;;;23.32;43.10
55079;BME280;55187;49.496;6.010;2022-07-10T10:16:47;98355.91;;;23.96;41.77
55079;BME280;55187;49.496;6.010;2022-07-10T10:19:14;98359.94;;;21.51;45.48
55079;BME280;55187;49.496;6.010;2022-07-10T10:21:54;98369.53;;;22.84;42.93
55079;BME280;55187;49.496;6.010;2022-07-10T10:24:22;98360.84;;;22.14;44.24
55079;BME280;55187;49.496;6.010;2022-07-10T10:26:49;98358.63;;;21.54;46.09
55079;BME280;55187;49.496;6.010;2022-07-10T10:29:16;98365.97;;;22.45;44.27
55079;BME280;55187;49.496;6.010;2022-07-10T10:31:42;98361.34;;;21.83;44.37
55079;BME280;55187;49.496;6.010;2022-07-10T10:34:09;98362.34;;;22.90;42.19
55079;BME280;55187;49.496;6.010;2022-07-10T10:36:46;98365.16;;;22.44;44.09
55079;BME280;55187;49.496;6.010;2022-07-10T10:39:15;98348.13;;;23.77;42.33
55079;BME280;55187;49.496;6.010;2022-07-10T10:41:47;98368.41;;;21.08;46.68
55079;BME280;55187;49.496;6.010;2022-07-10T10:44:20;98369.31;;;21.25;47.08
55079;BME280;55187;49.496;6.010;2022-07-10T10:47:02;98367.34;;;22.02;45.59
55079;BME280;55187;49.496;6.010;2022-07-10T10:49:52;98354.88;;;21.55;45.55
55079;BME280;55187;49.496;6.010;2022-07-10T10:52:19;98354.25;;;20.77;48.06
55079;BME280;55187;49.496;6.010;2022-07-10T10:55:00;98348.16;;;21.98;46.41
55079;BME280;55187;49.496;6.010;2022-07-10T10:57:38;98356.41;;;21.51;46.13
55079;BME280;55187;49.496;6.010;2022-07-10T11:00:12;98353.03;;;21.84;45.49
55079;BME280;55187;49.496;6.010;2022-07-10T11:02:41;98350.06;;;23.38;42.55
55079;BME280;55187;49.496;6.010;2022-07-10T11:05:43;98342.47;;;23.35;42.26
55079;BME280;55187;49.496;6.010;2022-07-10T11:08:11;98341.81;;;22.89;43.20
55079;BME280;55187;49.496;6.010;2022-07-10T11:10:44;98340.56;;;23.57;42.15
55079;BME280;55187;49.496;6.010;2022-07-10T11:13:18;98348.16;;;22.15;44.67
55079;BME280;55187;49.496;6.010;2022-07-10T11:15:45;98345.63;;;23.27;42.41
55079;BME280;55187;49.496;6.010;2022-07-10T11:18:14;98338.44;;;23.37;42.29
55079;BME280;55187;49.496;6.010;2022-07-10T11:20:46;98343.22;;;22.40;44.25
55079;BME280;55187;49.496;6.010;2022-07-10T11:23:38;98343.72;;;21.11;47.01
55079;BME280;55187;49.496;6.010;2022-07-10T11:28:59;98340.81;;;22.39;44.44
55079;BME280;55187;49.496;6.010;2022-07-10T11:31:27;98334.41;;;22.45;44.08
55079;BME280;55187;49.496;6.010;2022-07-10T11:33:56;98329.50;;;22.76;44.43
55079;BME280;55187;49.496;6.010;2022-07-10T11:36:25;98326.66;;;20.82;47.48
55079;BME280;55187;49.496;6.010;2022-07-10T11:39:04;98328.16;;;21.01;47.89
55079;BME280;55187;49.496;6.010;2022-07-10T11:41:31;98321.72;;;21.83;46.87
55079;BME280;55187;49.496;6.010;2022-07-10T11:44:02;98330.78;;;21.36;46.24
55079;BME280;55187;49.496;6.010;2022-07-10T11:46:31;98320.25;;;21.35;46.88
55079;BME280;55187;49.496;6.010;2022-07-10T11:48:59;98321.53;;;21.32;47.11
55079;BME280;55187;49.496;6.010;2022-07-10T11:51:31;98318.84;;;21.73;46.17
55079;BME280;55187;49.496;6.010;2022-07-10T11:54:06;98320.00;;;21.36;47.29
55079;BME280;55187;49.496;6.010;2022-07-10T11:56:35;98322.41;;;21.90;47.37
55079;BME280;55187;49.496;6.010;2022-07-10T11:59:07;98321.13;;;21.93;46.85
55079;BME280;55187;49.496;6.010;2022-07-10T12:01:40;98312.31;;;21.97;45.95
55079;BME280;55187;49.496;6.010;2022-07-10T12:04:08;98324.06;;;21.63;46.46
55079;BME280;55187;49.496;6.010;2022-07-10T12:06:38;98316.78;;;21.63;46.70
55079;BME280;55187;49.496;6.010;2022-07-10T12:09:06;98320.69;;;20.80;47.43
55079;BME280;55187;49.496;6.010;2022-07-10T12:11:34;98315.88;;;21.57;47.46
55079;BME280;55187;49.496;6.010;2022-07-10T12:14:13;98309.91;;;21.84;45.50
55079;BME280;55187;49.496;6.010;2022-07-10T12:16:47;98318.03;;;21.72;46.04
55079;BME280;55187;49.496;6.010;2022-07-10T12:19:16;98314.16;;;21.28;46.31
55079;BME280;55187;49.496;6.010;2022-07-10T12:21:46;98310.69;;;21.68;46.28
55079;BME280;55187;49.496;6.010;2022-07-10T12:24:14;98305.59;;;22.17;46.83
55079;BME280;55187;49.496;6.010;2022-07-10T12:26:43;98316.53;;;21.24;46.97
55079;BME280;55187;49.496;6.010;2022-07-10T12:29:22;98315.72;;;21.24;47.58
55079;BME280;55187;49.496;6.010;2022-07-10T12:31:50;98328.78;;;21.32;48.04
55079;BME280;55187;49.496;6.010;2022-07-10T12:34:18;98318.28;;;21.99;46.00
55079;BME280;55187;49.496;6.010;2022-07-10T12:36:47;98325.09;;;22.53;45.99
55079;BME280;55187;49.496;6.010;2022-07-10T12:39:16;98326.53;;;22.10;45.65
55079;BME280;55187;49.496;6.010;2022-07-10T12:42:01;98331.34;;;22.08;45.54
55079;BME280;55187;49.496;6.010;2022-07-10T12:44:37;98328.13;;;22.73;44.74
55079;BME280;55187;49.496;6.010;2022-07-10T12:47:12;98329.84;;;22.29;45.18
55079;BME280;55187;49.496;6.010;2022-07-10T12:49:52;98326.66;;;21.05;47.99
55079;BME280;55187;49.496;6.010;2022-07-10T12:52:21;98323.97;;;20.58;49.33
55079;BME280;55187;49.496;6.010;2022-07-10T12:54:48;98319.09;;;21.43;47.30
55079;BME280;55187;49.496;6.010;2022-07-10T12:57:14;98323.50;;;21.37;47.84
55079;BME280;55187;49.496;6.010;2022-07-10T12:59:40;98322.41;;;20.98;47.99
55079;BME280;55187;49.496;6.010;2022-07-10T13:02:16;98319.41;;;21.34;47.16
55079;BME280;55187;49.496;6.010;2022-07-10T13:04:55;98322.69;;;20.96;47.83
55079;BME280;55187;49.496;6.010;2022-07-10T13:07:30;98327.94;;;20.91;48.25
55079;BME280;55187;49.496;6.010;2022-07-10T13:09:59;98319.78;;;21.38;47.56
55079;BME280;55187;49.496;6.010;2022-07-10T13:12:26;98321.38;;;21.63;47.43